sensor_id;sensor_type;location;lat;lon;timestamp;P1;durP1;ratioP1;P2;durP2;ratioP2
42760;SDS011;31672;47.638;19.026;2023-04-19T00:00:14;3.37;;;1.60;;
42760;SDS011;31672;47.638;19.026;2023-04-19T00:05:17;2.90;;;1.90;;
42760;SDS011;31672;47.638;19.026;2023-04-19T00:10:24;2.37;;;1.40;;
42760;SDS011;31672;47.638;19.026;2023-04-19T00:15:27;3.23;;;1.93;;
42760;SDS011;31672;47.638;19.026;2023-04-19T00:20:30;4.10;;;2.07;;
42760;SDS011;31672;47.638;19.026;2023-04-19T00:25:34;3.17;;;2.07;;
42760;SDS011;31672;47.638;19.026;2023-04-19T00:30:37;2.93;;;1.70;;
42760;SDS011;31672;47.638;19.026;2023-04-19T00:35:40;3.33;;;1.60;;
42760;SDS011;31672;47.638;19.026;2023-04-19T00:40:43;2.70;;;1.50;;
42760;SDS011;31672;47.638;19.026;2023-04-19T00:45:47;4.37;;;1.90;;
42760;SDS011;31672;47.638;19.026;2023-04-19T00:50:51;2.87;;;1.83;;
42760;SDS011;31672;47.638;19.026;2023-04-19T00:55:54;4.03;;;1.60;;
42760;SDS011;31672;47.638;19.026;2023-04-19T01:01:01;2.93;;;1.60;;
42760;SDS011;31672;47.638;19.026;2023-04-19T01:06:04;3.20;;;1.70;;
42760;SDS011;31672;47.638;19.026;2023-04-19T01:11:07;3.97;;;2.10;;
42760;SDS011;31672;47.638;19.026;2023-04-19T01:16:10;2.77;;;1.53;;
42760;SDS011;31672;47.638;19.026;2023-04-19T01:21:14;3.27;;;2.00;;
42760;SDS011;31672;47.638;19.026;2023-04-19T01:26:19;2.63;;;1.60;;
42760;SDS011;31672;47.638;19.026;2023-04-19T01:31:22;4.97;;;1.70;;
42760;SDS011;31672;47.638;19.026;2023-04-19T01:36:26;4.57;;;1.60;;
42760;SDS011;31672;47.638;19.026;2023-04-19T01:41:29;4.17;;;2.40;;
42760;SDS011;31672;47.638;19.026;2023-04-19T01:46:32;4.97;;;2.50;;
42760;SDS011;31672;47.638;19.026;2023-04-19T01:51:36;2.87;;;2.00;;
42760;SDS011;31672;47.638;19.026;2023-04-19T01:56:40;3.23;;;1.90;;
42760;SDS011;31672;47.638;19.026;2023-04-19T02:01:42;3.27;;;1.93;;
42760;SDS011;31672;47.638;19.026;2023-04-19T02:06:45;4.50;;;1.67;;
42760;SDS011;31672;47.638;19.026;2023-04-19T02:11:49;5.67;;;2.07;;
42760;SDS011;31672;47.638;19.026;2023-04-19T02:16:52;2.73;;;1.60;;
42760;SDS011;31672;47.638;19.026;2023-04-19T02:21:56;4.43;;;1.80;;
42760;SDS011;31672;47.638;19.026;2023-04-19T02:26:59;3.37;;;2.03;;
42760;SDS011;31672;47.638;19.026;2023-04-19T02:32:03;3.30;;;2.07;;
42760;SDS011;31672;47.638;19.026;2023-04-19T02:37:08;4.57;;;2.40;;
42760;SDS011;31672;47.638;19.026;2023-04-19T02:42:11;5.47;;;2.37;;
42760;SDS011;31672;47.638;19.026;2023-04-19T02:47:14;4.07;;;2.27;;
42760;SDS011;31672;47.638;19.026;2023-04-19T02:52:17;3.87;;;2.27;;
42760;SDS011;31672;47.638;19.026;2023-04-19T02:57:20;3.70;;;1.93;;
42760;SDS011;31672;47.638;19.026;2023-04-19T03:02:23;3.63;;;2.07;;
42760;SDS011;31672;47.638;19.026;2023-04-19T03:07:27;3.30;;;1.93;;
42760;SDS011;31672;47.638;19.026;2023-04-19T03:12:30;4.43;;;2.20;;
42760;SDS011;31672;47.638;19.026;2023-04-19T03:17:33;3.80;;;2.27;;
42760;SDS011;31672;47.638;19.026;2023-04-19T03:22:36;4.30;;;2.27;;
42760;SDS011;31672;47.638;19.026;2023-04-19T03:27:40;3.73;;;2.30;;
42760;SDS011;31672;47.638;19.026;2023-04-19T03:32:43;4.73;;;2.30;;
42760;SDS011;31672;47.638;19.026;2023-04-19T03:37:46;4.20;;;2.37;;
42760;SDS011;31672;47.638;19.026;2023-04-19T03:42:49;3.80;;;2.50;;
42760;SDS011;31672;47.638;19.026;2023-04-19T03:47:52;3.73;;;2.00;;
42760;SDS011;31672;47.638;19.026;2023-04-19T03:52:55;3.90;;;2.33;;
42760;SDS011;31672;47.638;19.026;2023-04-19T03:57:58;4.37;;;2.40;;
42760;SDS011;31672;47.638;19.026;2023-04-19T04:03:01;4.83;;;2.60;;
42760;SDS011;31672;47.638;19.026;2023-04-19T04:08:04;8.10;;;4.13;;
42760;SDS011;31672;47.638;19.026;2023-04-19T04:13:08;4.00;;;2.37;;
42760;SDS011;31672;47.638;19.026;2023-04-19T04:18:11;3.57;;;2.33;;
42760;SDS011;31672;47.638;19.026;2023-04-19T04:23:14;3.70;;;2.00;;
42760;SDS011;31672;47.638;19.026;2023-04-19T04:28:17;12.33;;;6.17;;
42760;SDS011;31672;47.638;19.026;2023-04-19T04:33:20;6.97;;;3.73;;
42760;SDS011;31672;47.638;19.026;2023-04-19T04:38:24;4.00;;;2.40;;
42760;SDS011;31672;47.638;19.026;2023-04-19T04:43:27;5.10;;;3.07;;
42760;SDS011;31672;47.638;19.026;2023-04-19T04:48:31;3.87;;;2.30;;
42760;SDS011;31672;47.638;19.026;2023-04-19T04:53:34;5.10;;;2.40;;
42760;SDS011;31672;47.638;19.026;2023-04-19T04:58:37;4.33;;;2.80;;
42760;SDS011;31672;47.638;19.026;2023-04-19T05:03:40;6.40;;;2.90;;
42760;SDS011;31672;47.638;19.026;2023-04-19T05:08:43;5.70;;;2.20;;
42760;SDS011;31672;47.638;19.026;2023-04-19T05:13:46;5.23;;;2.90;;
42760;SDS011;31672;47.638;19.026;2023-04-19T05:18:50;7.30;;;2.87;;
42760;SDS011;31672;47.638;19.026;2023-04-19T05:23:53;4.43;;;2.47;;
42760;SDS011;31672;47.638;19.026;2023-04-19T05:28:56;5.73;;;3.37;;
42760;SDS011;31672;47.638;19.026;2023-04-19T05:33:59;15.30;;;5.83;;
42760;SDS011;31672;47.638;19.026;2023-04-19T05:39:02;9.80;;;4.60;;
42760;SDS011;31672;47.638;19.026;2023-04-19T05:44:05;9.47;;;4.20;;
42760;SDS011;31672;47.638;19.026;2023-04-19T05:49:08;6.43;;;3.70;;
42760;SDS011;31672;47.638;19.026;2023-04-19T05:54:11;5.23;;;3.00;;
42760;SDS011;31672;47.638;19.026;2023-04-19T05:59:16;7.10;;;2.90;;
42760;SDS011;31672;47.638;19.026;2023-04-19T06:04:19;8.43;;;3.87;;
42760;SDS011;31672;47.638;19.026;2023-04-19T06:09:23;7.33;;;3.40;;
42760;SDS011;31672;47.638;19.026;2023-04-19T06:14:27;8.13;;;4.30;;
42760;SDS011;31672;47.638;19.026;2023-04-19T06:19:33;4.55;;;2.88;;
42760;SDS011;31672;47.638;19.026;2023-04-19T06:24:36;4.18;;;2.20;;
42760;SDS011;31672;47.638;19.026;2023-04-19T06:29:39;5.40;;;3.30;;
42760;SDS011;31672;47.638;19.026;2023-04-19T06:34:42;3.97;;;2.38;;
42760;SDS011;31672;47.638;19.026;2023-04-19T06:39:44;3.33;;;2.08;;
42760;SDS011;31672;47.638;19.026;2023-04-19T06:44:47;3.50;;;1.70;;
42760;SDS011;31672;47.638;19.026;2023-04-19T06:49:51;2.95;;;1.77;;
42760;SDS011;31672;47.638;19.026;2023-04-19T06:54:55;3.53;;;1.67;;
42760;SDS011;31672;47.638;19.026;2023-04-19T07:00:01;5.93;;;2.05;;
42760;SDS011;31672;47.638;19.026;2023-04-19T07:05:06;2.60;;;1.35;;
42760;SDS011;31672;47.638;19.026;2023-04-19T07:10:09;5.28;;;2.63;;
42760;SDS011;31672;47.638;19.026;2023-04-19T07:15:14;5.38;;;2.33;;
42760;SDS011;31672;47.638;19.026;2023-04-19T07:20:17;4.65;;;2.00;;
42760;SDS011;31672;47.638;19.026;2023-04-19T07:25:20;3.97;;;2.80;;
42760;SDS011;31672;47.638;19.026;2023-04-19T07:30:23;3.20;;;2.50;;
42760;SDS011;31672;47.638;19.026;2023-04-19T07:35:26;4.25;;;2.65;;
42760;SDS011;31672;47.638;19.026;2023-04-19T07:40:29;3.80;;;2.53;;
42760;SDS011;31672;47.638;19.026;2023-04-19T07:45:32;5.30;;;2.08;;
42760;SDS011;31672;47.638;19.026;2023-04-19T07:50:37;5.05;;;2.60;;
42760;SDS011;31672;47.638;19.026;2023-04-19T07:55:40;3.67;;;2.20;;
42760;SDS011;31672;47.638;19.026;2023-04-19T08:00:43;3.80;;;2.20;;
42760;SDS011;31672;47.638;19.026;2023-04-19T08:05:45;3.97;;;2.17;;
42760;SDS011;31672;47.638;19.026;2023-04-19T08:10:48;3.78;;;2.00;;
42760;SDS011;31672;47.638;19.026;2023-04-19T08:15:52;2.78;;;1.70;;
42760;SDS011;31672;47.638;19.026;2023-04-19T08:20:58;3.67;;;1.50;;
42760;SDS011;31672;47.638;19.026;2023-04-19T08:26:01;3.55;;;1.70;;
42760;SDS011;31672;47.638;19.026;2023-04-19T08:31:05;2.38;;;1.60;;
42760;SDS011;31672;47.638;19.026;2023-04-19T08:36:11;4.40;;;1.80;;
42760;SDS011;31672;47.638;19.026;2023-04-19T08:41:20;4.10;;;1.95;;
42760;SDS011;31672;47.638;19.026;2023-04-19T08:46:25;4.07;;;2.28;;
42760;SDS011;31672;47.638;19.026;2023-04-19T08:51:30;4.60;;;2.50;;
42760;SDS011;31672;47.638;19.026;2023-04-19T08:56:34;4.53;;;2.80;;
42760;SDS011;31672;47.638;19.026;2023-04-19T09:01:37;4.63;;;3.00;;
42760;SDS011;31672;47.638;19.026;2023-04-19T09:06:42;4.80;;;3.33;;
42760;SDS011;31672;47.638;19.026;2023-04-19T09:11:45;3.90;;;2.72;;
42760;SDS011;31672;47.638;19.026;2023-04-19T09:16:48;4.35;;;2.90;;
42760;SDS011;31672;47.638;19.026;2023-04-19T09:21:53;6.35;;;3.75;;
42760;SDS011;31672;47.638;19.026;2023-04-19T09:26:56;4.45;;;2.97;;
42760;SDS011;31672;47.638;19.026;2023-04-19T09:31:59;4.93;;;2.97;;
42760;SDS011;31672;47.638;19.026;2023-04-19T09:37:12;4.28;;;3.13;;
42760;SDS011;31672;47.638;19.026;2023-04-19T09:42:43;7.43;;;3.33;;
42760;SDS011;31672;47.638;19.026;2023-04-19T09:48:04;5.32;;;3.72;;
42760;SDS011;31672;47.638;19.026;2023-04-19T09:53:09;4.72;;;3.50;;
42760;SDS011;31672;47.638;19.026;2023-04-19T09:58:14;4.35;;;3.35;;
42760;SDS011;31672;47.638;19.026;2023-04-19T10:03:18;4.32;;;3.00;;
42760;SDS011;31672;47.638;19.026;2023-04-19T10:08:23;5.63;;;3.03;;
42760;SDS011;31672;47.638;19.026;2023-04-19T10:13:28;6.13;;;3.00;;
42760;SDS011;31672;47.638;19.026;2023-04-19T10:18:31;5.43;;;3.08;;
42760;SDS011;31672;47.638;19.026;2023-04-19T10:23:35;4.00;;;2.55;;
42760;SDS011;31672;47.638;19.026;2023-04-19T10:28:40;3.28;;;2.72;;
42760;SDS011;31672;47.638;19.026;2023-04-19T10:33:43;6.55;;;3.72;;
42760;SDS011;31672;47.638;19.026;2023-04-19T10:38:48;4.35;;;3.13;;
42760;SDS011;31672;47.638;19.026;2023-04-19T10:49:00;6.63;;;3.60;;
42760;SDS011;31672;47.638;19.026;2023-04-19T10:54:08;4.50;;;3.20;;
42760;SDS011;31672;47.638;19.026;2023-04-19T10:59:34;6.82;;;3.90;;
42760;SDS011;31672;47.638;19.026;2023-04-19T11:09:51;6.07;;;5.10;;
42760;SDS011;31672;47.638;19.026;2023-04-19T11:14:55;8.23;;;5.13;;
42760;SDS011;31672;47.638;19.026;2023-04-19T11:20:02;7.13;;;5.32;;
42760;SDS011;31672;47.638;19.026;2023-04-19T11:25:15;5.97;;;4.55;;
42760;SDS011;31672;47.638;19.026;2023-04-19T11:30:20;6.25;;;4.05;;
42760;SDS011;31672;47.638;19.026;2023-04-19T11:35:30;5.82;;;4.35;;
42760;SDS011;31672;47.638;19.026;2023-04-19T11:40:33;6.93;;;5.18;;
42760;SDS011;31672;47.638;19.026;2023-04-19T11:45:38;6.95;;;5.07;;
42760;SDS011;31672;47.638;19.026;2023-04-19T11:50:42;7.18;;;4.95;;
42760;SDS011;31672;47.638;19.026;2023-04-19T11:56:08;5.93;;;4.40;;
42760;SDS011;31672;47.638;19.026;2023-04-19T12:06:21;7.03;;;5.22;;
42760;SDS011;31672;47.638;19.026;2023-04-19T12:11:45;5.97;;;4.70;;
42760;SDS011;31672;47.638;19.026;2023-04-19T12:17:11;5.20;;;4.35;;
42760;SDS011;31672;47.638;19.026;2023-04-19T12:22:18;5.40;;;4.10;;
42760;SDS011;31672;47.638;19.026;2023-04-19T12:27:21;5.82;;;4.30;;
42760;SDS011;31672;47.638;19.026;2023-04-19T12:32:26;4.53;;;3.60;;
42760;SDS011;31672;47.638;19.026;2023-04-19T12:37:30;5.32;;;4.00;;
42760;SDS011;31672;47.638;19.026;2023-04-19T12:42:33;5.10;;;4.00;;
42760;SDS011;31672;47.638;19.026;2023-04-19T12:47:36;8.32;;;5.07;;
42760;SDS011;31672;47.638;19.026;2023-04-19T12:52:39;5.38;;;4.13;;
42760;SDS011;31672;47.638;19.026;2023-04-19T12:57:47;5.10;;;3.58;;
42760;SDS011;31672;47.638;19.026;2023-04-19T13:02:51;2.80;;;2.33;;
42760;SDS011;31672;47.638;19.026;2023-04-19T13:07:54;6.25;;;2.97;;
42760;SDS011;31672;47.638;19.026;2023-04-19T13:12:57;4.85;;;2.40;;
42760;SDS011;31672;47.638;19.026;2023-04-19T13:18:01;3.92;;;2.53;;
42760;SDS011;31672;47.638;19.026;2023-04-19T13:23:05;5.32;;;3.10;;
42760;SDS011;31672;47.638;19.026;2023-04-19T13:28:08;6.32;;;4.00;;
42760;SDS011;31672;47.638;19.026;2023-04-19T13:33:10;4.15;;;3.20;;
42760;SDS011;31672;47.638;19.026;2023-04-19T13:38:13;5.13;;;2.80;;
42760;SDS011;31672;47.638;19.026;2023-04-19T13:43:16;7.72;;;6.18;;
42760;SDS011;31672;47.638;19.026;2023-04-19T13:48:20;6.72;;;4.18;;
42760;SDS011;31672;47.638;19.026;2023-04-19T13:53:23;8.00;;;6.38;;
42760;SDS011;31672;47.638;19.026;2023-04-19T13:58:28;11.40;;;8.10;;
42760;SDS011;31672;47.638;19.026;2023-04-19T14:03:31;10.73;;;8.57;;
42760;SDS011;31672;47.638;19.026;2023-04-19T14:08:35;12.27;;;9.23;;
42760;SDS011;31672;47.638;19.026;2023-04-19T14:13:38;13.07;;;9.00;;
42760;SDS011;31672;47.638;19.026;2023-04-19T14:18:41;11.60;;;8.50;;
42760;SDS011;31672;47.638;19.026;2023-04-19T14:23:44;7.25;;;5.43;;
42760;SDS011;31672;47.638;19.026;2023-04-19T14:28:47;6.78;;;4.20;;
42760;SDS011;31672;47.638;19.026;2023-04-19T14:33:50;3.35;;;2.55;;
42760;SDS011;31672;47.638;19.026;2023-04-19T14:38:53;3.00;;;1.98;;
42760;SDS011;31672;47.638;19.026;2023-04-19T14:43:56;2.60;;;1.42;;
42760;SDS011;31672;47.638;19.026;2023-04-19T14:48:59;2.90;;;1.20;;
42760;SDS011;31672;47.638;19.026;2023-04-19T14:54:07;2.38;;;1.58;;
42760;SDS011;31672;47.638;19.026;2023-04-19T14:59:09;2.70;;;2.00;;
42760;SDS011;31672;47.638;19.026;2023-04-19T15:04:13;3.25;;;1.50;;
42760;SDS011;31672;47.638;19.026;2023-04-19T15:09:17;1.75;;;1.08;;
42760;SDS011;31672;47.638;19.026;2023-04-19T15:14:20;1.45;;;1.00;;
42760;SDS011;31672;47.638;19.026;2023-04-19T15:19:23;2.67;;;1.60;;
42760;SDS011;31672;47.638;19.026;2023-04-19T15:24:26;4.25;;;2.00;;
42760;SDS011;31672;47.638;19.026;2023-04-19T15:29:29;2.22;;;1.73;;
42760;SDS011;31672;47.638;19.026;2023-04-19T15:34:33;4.80;;;2.78;;
42760;SDS011;31672;47.638;19.026;2023-04-19T15:39:37;4.47;;;3.08;;
42760;SDS011;31672;47.638;19.026;2023-04-19T15:44:40;5.57;;;2.28;;
42760;SDS011;31672;47.638;19.026;2023-04-19T15:49:45;2.95;;;2.15;;
42760;SDS011;31672;47.638;19.026;2023-04-19T15:54:49;2.72;;;2.17;;
42760;SDS011;31672;47.638;19.026;2023-04-19T15:59:53;4.03;;;2.10;;
42760;SDS011;31672;47.638;19.026;2023-04-19T16:04:56;2.85;;;2.00;;
42760;SDS011;31672;47.638;19.026;2023-04-19T16:09:59;2.95;;;2.10;;
42760;SDS011;31672;47.638;19.026;2023-04-19T16:15:02;4.28;;;2.90;;
42760;SDS011;31672;47.638;19.026;2023-04-19T16:20:06;3.75;;;2.60;;
42760;SDS011;31672;47.638;19.026;2023-04-19T16:25:11;4.50;;;2.50;;
42760;SDS011;31672;47.638;19.026;2023-04-19T16:30:15;3.92;;;2.40;;
42760;SDS011;31672;47.638;19.026;2023-04-19T16:35:18;5.10;;;3.00;;
42760;SDS011;31672;47.638;19.026;2023-04-19T16:40:21;4.15;;;2.95;;
42760;SDS011;31672;47.638;19.026;2023-04-19T16:45:24;7.05;;;4.18;;
42760;SDS011;31672;47.638;19.026;2023-04-19T16:50:27;6.78;;;3.15;;
42760;SDS011;31672;47.638;19.026;2023-04-19T16:55:30;7.20;;;3.67;;
42760;SDS011;31672;47.638;19.026;2023-04-19T17:00:33;5.03;;;3.45;;
42760;SDS011;31672;47.638;19.026;2023-04-19T17:05:36;6.15;;;3.45;;
42760;SDS011;31672;47.638;19.026;2023-04-19T17:10:39;4.68;;;3.20;;
42760;SDS011;31672;47.638;19.026;2023-04-19T17:15:42;5.78;;;3.83;;
42760;SDS011;31672;47.638;19.026;2023-04-19T17:20:45;5.40;;;4.00;;
42760;SDS011;31672;47.638;19.026;2023-04-19T17:25:48;6.47;;;4.23;;
42760;SDS011;31672;47.638;19.026;2023-04-19T17:30:51;6.23;;;4.33;;
42760;SDS011;31672;47.638;19.026;2023-04-19T17:35:54;6.07;;;4.60;;
42760;SDS011;31672;47.638;19.026;2023-04-19T17:40:57;8.43;;;4.83;;
42760;SDS011;31672;47.638;19.026;2023-04-19T17:46:00;9.13;;;5.60;;
42760;SDS011;31672;47.638;19.026;2023-04-19T17:51:03;7.77;;;4.97;;
42760;SDS011;31672;47.638;19.026;2023-04-19T17:56:07;6.20;;;3.30;;
42760;SDS011;31672;47.638;19.026;2023-04-19T18:01:09;8.17;;;5.67;;
42760;SDS011;31672;47.638;19.026;2023-04-19T18:06:13;7.10;;;5.40;;
42760;SDS011;31672;47.638;19.026;2023-04-19T18:11:17;7.60;;;5.97;;
42760;SDS011;31672;47.638;19.026;2023-04-19T18:16:20;10.13;;;6.67;;
42760;SDS011;31672;47.638;19.026;2023-04-19T18:21:23;8.17;;;6.10;;
42760;SDS011;31672;47.638;19.026;2023-04-19T18:26:39;6.23;;;4.63;;
42760;SDS011;31672;47.638;19.026;2023-04-19T18:31:43;8.10;;;6.00;;
42760;SDS011;31672;47.638;19.026;2023-04-19T18:36:46;7.23;;;5.70;;
42760;SDS011;31672;47.638;19.026;2023-04-19T18:41:54;7.97;;;6.03;;
42760;SDS011;31672;47.638;19.026;2023-04-19T18:47:00;9.40;;;6.57;;
42760;SDS011;31672;47.638;19.026;2023-04-19T18:52:07;8.07;;;6.13;;
42760;SDS011;31672;47.638;19.026;2023-04-19T18:57:10;6.93;;;5.57;;
42760;SDS011;31672;47.638;19.026;2023-04-19T19:02:25;7.97;;;6.60;;
42760;SDS011;31672;47.638;19.026;2023-04-19T19:07:29;7.43;;;5.80;;
42760;SDS011;31672;47.638;19.026;2023-04-19T19:12:35;8.37;;;6.40;;
42760;SDS011;31672;47.638;19.026;2023-04-19T19:17:38;11.53;;;7.20;;
42760;SDS011;31672;47.638;19.026;2023-04-19T19:22:42;8.43;;;5.93;;
42760;SDS011;31672;47.638;19.026;2023-04-19T19:27:46;8.57;;;6.13;;
42760;SDS011;31672;47.638;19.026;2023-04-19T19:33:11;9.87;;;7.00;;
42760;SDS011;31672;47.638;19.026;2023-04-19T19:38:14;11.33;;;6.97;;
42760;SDS011;31672;47.638;19.026;2023-04-19T19:43:18;8.80;;;6.47;;
42760;SDS011;31672;47.638;19.026;2023-04-19T19:48:21;9.87;;;6.03;;
42760;SDS011;31672;47.638;19.026;2023-04-19T19:53:24;9.20;;;6.40;;
42760;SDS011;31672;47.638;19.026;2023-04-19T19:58:27;11.63;;;7.17;;
42760;SDS011;31672;47.638;19.026;2023-04-19T20:03:50;8.53;;;6.80;;
42760;SDS011;31672;47.638;19.026;2023-04-19T20:08:55;11.30;;;7.93;;
42760;SDS011;31672;47.638;19.026;2023-04-19T20:13:59;12.20;;;8.00;;
42760;SDS011;31672;47.638;19.026;2023-04-19T20:19:02;12.43;;;8.47;;
42760;SDS011;31672;47.638;19.026;2023-04-19T20:24:11;9.83;;;7.53;;
42760;SDS011;31672;47.638;19.026;2023-04-19T20:29:16;10.50;;;7.27;;
42760;SDS011;31672;47.638;19.026;2023-04-19T20:34:19;9.20;;;6.47;;
42760;SDS011;31672;47.638;19.026;2023-04-19T20:39:22;8.83;;;6.77;;
42760;SDS011;31672;47.638;19.026;2023-04-19T20:44:26;9.90;;;7.23;;
42760;SDS011;31672;47.638;19.026;2023-04-19T20:49:30;8.67;;;6.47;;
42760;SDS011;31672;47.638;19.026;2023-04-19T20:54:33;11.97;;;7.50;;
42760;SDS011;31672;47.638;19.026;2023-04-19T20:59:37;9.23;;;7.00;;
42760;SDS011;31672;47.638;19.026;2023-04-19T21:04:41;9.40;;;6.57;;
42760;SDS011;31672;47.638;19.026;2023-04-19T21:09:44;10.60;;;7.53;;
42760;SDS011;31672;47.638;19.026;2023-04-19T21:14:47;10.43;;;7.53;;
42760;SDS011;31672;47.638;19.026;2023-04-19T21:19:52;10.83;;;7.00;;
42760;SDS011;31672;47.638;19.026;2023-04-19T21:24:55;11.13;;;7.03;;
42760;SDS011;31672;47.638;19.026;2023-04-19T21:29:58;11.67;;;7.37;;
42760;SDS011;31672;47.638;19.026;2023-04-19T21:35:02;13.17;;;8.67;;
42760;SDS011;31672;47.638;19.026;2023-04-19T21:40:06;12.67;;;8.77;;
42760;SDS011;31672;47.638;19.026;2023-04-19T21:45:09;16.57;;;10.10;;
42760;SDS011;31672;47.638;19.026;2023-04-19T21:50:12;17.20;;;11.10;;
42760;SDS011;31672;47.638;19.026;2023-04-19T21:55:15;12.93;;;9.57;;
42760;SDS011;31672;47.638;19.026;2023-04-19T22:00:19;14.40;;;9.07;;
42760;SDS011;31672;47.638;19.026;2023-04-19T22:05:24;10.63;;;7.43;;
42760;SDS011;31672;47.638;19.026;2023-04-19T22:10:27;10.20;;;7.37;;
42760;SDS011;31672;47.638;19.026;2023-04-19T22:15:31;9.37;;;6.00;;
42760;SDS011;31672;47.638;19.026;2023-04-19T22:20:34;9.67;;;6.63;;
42760;SDS011;31672;47.638;19.026;2023-04-19T22:25:37;9.73;;;6.57;;
42760;SDS011;31672;47.638;19.026;2023-04-19T22:30:41;9.07;;;6.03;;
42760;SDS011;31672;47.638;19.026;2023-04-19T22:35:44;9.60;;;6.03;;
42760;SDS011;31672;47.638;19.026;2023-04-19T22:40:47;9.80;;;5.87;;
42760;SDS011;31672;47.638;19.026;2023-04-19T22:45:50;11.33;;;7.90;;
42760;SDS011;31672;47.638;19.026;2023-04-19T22:50:53;11.17;;;7.40;;
42760;SDS011;31672;47.638;19.026;2023-04-19T22:55:57;10.07;;;6.97;;
42760;SDS011;31672;47.638;19.026;2023-04-19T23:01:00;11.37;;;7.67;;
42760;SDS011;31672;47.638;19.026;2023-04-19T23:06:03;10.67;;;7.20;;
42760;SDS011;31672;47.638;19.026;2023-04-19T23:11:07;11.13;;;7.10;;
42760;SDS011;31672;47.638;19.026;2023-04-19T23:16:12;11.47;;;8.10;;
42760;SDS011;31672;47.638;19.026;2023-04-19T23:21:15;11.87;;;6.83;;
42760;SDS011;31672;47.638;19.026;2023-04-19T23:26:18;12.07;;;7.23;;
42760;SDS011;31672;47.638;19.026;2023-04-19T23:31:21;11.57;;;7.83;;
42760;SDS011;31672;47.638;19.026;2023-04-19T23:36:24;8.97;;;6.20;;
42760;SDS011;31672;47.638;19.026;2023-04-19T23:41:28;10.13;;;6.33;;
42760;SDS011;31672;47.638;19.026;2023-04-19T23:46:31;11.30;;;6.90;;
42760;SDS011;31672;47.638;19.026;2023-04-19T23:51:34;9.20;;;6.03;;
42760;SDS011;31672;47.638;19.026;2023-04-19T23:56:37;9.57;;;6.57;;
